createdAt,value
2018-03-31T00:00:32.179Z,995.29
2018-03-31T00:01:32.203Z,995.31
2018-03-31T00:02:32.278Z,995.28
2018-03-31T00:03:32.526Z,995.27
2018-03-31T00:04:32.382Z,995.31
2018-03-31T00:05:32.475Z,995.28
2018-03-31T00:06:32.531Z,995.33
2018-03-31T00:07:32.578Z,995.31
2018-03-31T00:08:32.639Z,995.36
2018-03-31T00:09:32.748Z,995.36
2018-03-31T00:10:32.762Z,995.38
2018-03-31T00:11:32.824Z,995.39
2018-03-31T00:12:32.874Z,995.42
2018-03-31T00:13:33.023Z,995.42
2018-03-31T00:14:33.078Z,995.47
2018-03-31T00:15:33.118Z,995.43
2018-03-31T00:16:33.183Z,995.41
2018-03-31T00:17:33.204Z,995.44
2018-03-31T00:18:33.291Z,995.41
2018-03-31T00:19:33.335Z,995.39
2018-03-31T00:20:33.378Z,995.42
2018-03-31T00:21:33.459Z,995.48
2018-03-31T00:22:33.508Z,995.45
2018-03-31T00:23:33.591Z,995.45
2018-03-31T00:24:33.803Z,995.43
2018-03-31T00:25:33.751Z,995.40
2018-03-31T00:26:33.963Z,995.44
2018-03-31T00:27:33.904Z,995.43
2018-03-31T00:28:33.984Z,995.41
2018-03-31T00:29:33.960Z,995.47
2018-03-31T00:30:34.005Z,995.42
2018-03-31T00:31:34.079Z,995.40
2018-03-31T00:32:34.113Z,995.40
2018-03-31T00:33:34.744Z,995.38
2018-03-31T00:34:34.280Z,995.41
2018-03-31T00:35:34.636Z,995.36
2018-03-31T00:36:34.471Z,995.41
2018-03-31T00:37:34.436Z,995.38
2018-03-31T00:38:34.511Z,995.35
2018-03-31T00:39:34.871Z,995.38
2018-03-31T00:40:34.604Z,995.37
2018-03-31T00:41:34.668Z,995.40
2018-03-31T00:42:34.752Z,995.35
2018-03-31T00:43:34.828Z,995.33
2018-03-31T00:44:35.068Z,995.35
2018-03-31T00:45:34.944Z,995.34
2018-03-31T00:46:35.148Z,995.33
2018-03-31T00:47:35.040Z,995.31
2018-03-31T00:48:35.100Z,995.31
2018-03-31T00:49:35.416Z,995.30
2018-03-31T00:50:35.248Z,995.27
2018-03-31T00:51:35.316Z,995.26
2018-03-31T00:52:35.364Z,995.25
2018-03-31T00:53:35.556Z,995.17
2018-03-31T00:54:35.497Z,995.21
2018-03-31T00:55:35.548Z,995.17
2018-03-31T00:56:35.589Z,995.16
2018-03-31T00:57:35.672Z,995.15
2018-03-31T00:58:35.725Z,995.13
2018-03-31T00:59:35.812Z,995.13
2018-03-31T01:00:35.844Z,995.16
2018-03-31T01:01:35.909Z,995.15
2018-03-31T01:02:36.085Z,995.13
2018-03-31T01:03:36.021Z,995.17
2018-03-31T01:04:36.125Z,995.12
2018-03-31T01:05:36.153Z,995.19
2018-03-31T01:06:36.225Z,995.17
2018-03-31T01:07:36.268Z,995.15
2018-03-31T01:08:36.329Z,995.20
2018-03-31T01:09:36.391Z,995.22
2018-03-31T01:10:36.541Z,995.24
2018-03-31T01:11:36.517Z,995.23
2018-03-31T01:12:36.581Z,995.21
2018-03-31T01:13:36.645Z,995.25
2018-03-31T01:14:36.701Z,995.28
2018-03-31T01:15:36.777Z,995.26
2018-03-31T01:16:36.846Z,995.30
2018-03-31T01:17:36.881Z,995.30
2018-03-31T01:18:36.946Z,995.27
2018-03-31T01:19:37.005Z,995.31
2018-03-31T01:20:37.081Z,995.32
2018-03-31T01:21:37.141Z,995.34
2018-03-31T01:22:37.223Z,995.37
2018-03-31T01:23:37.250Z,995.38
2018-03-31T01:24:37.381Z,995.37
2018-03-31T01:25:37.369Z,995.33
2018-03-31T01:26:37.430Z,995.33
2018-03-31T01:27:37.490Z,995.32
2018-03-31T01:28:37.554Z,995.31
2018-03-31T01:29:37.626Z,995.27
2018-03-31T01:30:37.733Z,995.31
2018-03-31T01:31:37.733Z,995.30
2018-03-31T01:32:37.802Z,995.32
2018-03-31T01:33:37.871Z,995.31
2018-03-31T01:34:37.934Z,995.29
2018-03-31T01:35:37.994Z,995.30
2018-03-31T01:36:38.043Z,995.33
2018-03-31T01:37:38.098Z,995.41
2018-03-31T01:38:38.166Z,995.37
2018-03-31T01:39:38.242Z,995.41
2018-03-31T01:40:38.319Z,995.37
2018-03-31T01:41:38.358Z,995.40
2018-03-31T01:42:38.422Z,995.42
2018-03-31T01:43:38.467Z,995.40
2018-03-31T01:44:38.530Z,995.38
2018-03-31T01:45:38.603Z,995.36
2018-03-31T01:46:38.662Z,995.41
2018-03-31T01:47:38.707Z,995.42
2018-03-31T01:48:38.783Z,995.43
2018-03-31T01:49:38.875Z,995.43
2018-03-31T01:50:38.967Z,995.42
2018-03-31T01:51:38.959Z,995.41
2018-03-31T01:52:39.062Z,995.37
2018-03-31T01:53:39.079Z,995.35
2018-03-31T01:54:39.143Z,995.34
2018-03-31T01:55:39.592Z,995.38
2018-03-31T01:56:39.267Z,995.33
2018-03-31T01:57:39.339Z,995.35
2018-03-31T01:58:39.400Z,995.29
2018-03-31T01:59:39.492Z,995.34
2018-03-31T02:00:39.511Z,995.34
2018-03-31T02:01:39.800Z,995.30
2018-03-31T02:02:39.627Z,995.30
2018-03-31T02:03:39.688Z,995.34
2018-03-31T02:04:39.771Z,995.34
2018-03-31T02:05:39.811Z,995.29
2018-03-31T02:06:39.888Z,995.27
2018-03-31T02:07:40.009Z,995.26
2018-03-31T02:08:40.020Z,995.27
2018-03-31T02:09:40.056Z,995.25
2018-03-31T02:10:40.116Z,995.25
2018-03-31T02:11:40.334Z,995.27
2018-03-31T02:12:40.254Z,995.28
2018-03-31T02:13:40.296Z,995.28
2018-03-31T02:14:40.385Z,995.29
2018-03-31T02:15:40.424Z,995.28
2018-03-31T02:16:40.488Z,995.28
2018-03-31T02:17:40.647Z,995.32
2018-03-31T02:18:40.609Z,995.28
2018-03-31T02:19:40.668Z,995.30
2018-03-31T02:20:40.728Z,995.31
2018-03-31T02:21:40.792Z,995.28
2018-03-31T02:22:40.857Z,995.27
2018-03-31T02:23:40.912Z,995.27
2018-03-31T02:24:40.989Z,995.30
2018-03-31T02:25:41.044Z,995.27
2018-03-31T02:26:41.389Z,995.27
2018-03-31T02:27:41.152Z,995.28
2018-03-31T02:28:41.240Z,995.31
2018-03-31T02:29:41.289Z,995.32
2018-03-31T02:30:41.344Z,995.31
2018-03-31T02:31:41.422Z,995.31
2018-03-31T02:32:41.457Z,995.32
2018-03-31T02:33:41.513Z,995.36
2018-03-31T02:34:41.577Z,995.34
2018-03-31T02:35:41.647Z,995.31
2018-03-31T02:36:41.735Z,995.33
2018-03-31T02:37:41.790Z,995.32
2018-03-31T02:38:41.829Z,995.33
2018-03-31T02:39:41.896Z,995.35
2018-03-31T02:40:41.934Z,995.30
2018-03-31T02:41:42.009Z,995.31
2018-03-31T02:42:42.070Z,995.31
2018-03-31T02:43:42.138Z,995.31
2018-03-31T02:44:42.191Z,995.29
2018-03-31T02:45:42.241Z,995.26
2018-03-31T02:46:42.330Z,995.26
2018-03-31T02:47:42.418Z,995.25
2018-03-31T02:48:42.422Z,995.21
2018-03-31T02:49:42.486Z,995.21
2018-03-31T02:50:42.554Z,995.21
2018-03-31T02:51:42.610Z,995.20
2018-03-31T02:52:42.672Z,995.22
2018-03-31T02:53:42.738Z,995.20
2018-03-31T02:54:42.786Z,995.22
2018-03-31T02:55:42.849Z,995.29
2018-03-31T02:56:42.938Z,995.27
2018-03-31T02:57:42.973Z,995.23
2018-03-31T02:58:43.043Z,995.24
2018-03-31T02:59:43.167Z,995.26
2018-03-31T03:00:43.190Z,995.25
2018-03-31T03:01:43.366Z,995.26
2018-03-31T03:02:43.278Z,995.26
2018-03-31T03:03:43.330Z,995.28
2018-03-31T03:04:43.395Z,995.30
2018-03-31T03:05:43.450Z,995.23
2018-03-31T03:06:43.526Z,995.26
2018-03-31T03:07:43.607Z,995.32
2018-03-31T03:08:43.643Z,995.27
2018-03-31T03:09:43.702Z,995.29
2018-03-31T03:10:43.762Z,995.35
2018-03-31T03:11:43.838Z,995.33
2018-03-31T03:12:43.882Z,995.35
2018-03-31T03:13:43.941Z,995.35
2018-03-31T03:14:43.995Z,995.34
2018-03-31T03:15:44.067Z,995.36
2018-03-31T03:16:44.283Z,995.41
2018-03-31T03:17:44.175Z,995.43
2018-03-31T03:18:44.235Z,995.46
2018-03-31T03:19:44.295Z,995.41
2018-03-31T03:20:44.355Z,995.44
2018-03-31T03:21:44.423Z,995.42
2018-03-31T03:22:44.503Z,995.41
2018-03-31T03:23:44.538Z,995.43
2018-03-31T03:24:44.595Z,995.40
2018-03-31T03:25:44.663Z,995.43
2018-03-31T03:26:44.723Z,995.46
2018-03-31T03:27:44.799Z,995.47
2018-03-31T03:28:44.839Z,995.48
2018-03-31T03:29:44.899Z,995.45
2018-03-31T03:30:44.964Z,995.46
2018-03-31T03:31:45.047Z,995.48
2018-03-31T03:32:45.091Z,995.50
2018-03-31T03:33:45.156Z,995.48
2018-03-31T03:34:45.200Z,995.49
2018-03-31T03:35:45.260Z,995.53
2018-03-31T03:36:45.563Z,995.56
2018-03-31T03:37:45.384Z,995.58
2018-03-31T03:38:45.439Z,995.60
2018-03-31T03:39:45.506Z,995.61
2018-03-31T03:40:45.565Z,995.62
2018-03-31T03:41:45.644Z,995.64
2018-03-31T03:42:45.712Z,995.59
2018-03-31T03:43:45.744Z,995.56
2018-03-31T03:44:45.804Z,995.60
2018-03-31T03:45:45.863Z,995.60
2018-03-31T03:46:45.928Z,995.62
2018-03-31T03:47:45.990Z,995.63
2018-03-31T03:48:46.040Z,995.60
2018-03-31T03:49:46.104Z,995.62
2018-03-31T03:50:46.160Z,995.65
2018-03-31T03:51:46.244Z,995.60
2018-03-31T03:52:46.284Z,995.69
2018-03-31T03:53:46.356Z,995.68
2018-03-31T03:54:46.411Z,995.66
2018-03-31T03:55:46.464Z,995.72
2018-03-31T03:56:46.528Z,995.72
2018-03-31T03:57:46.607Z,995.77
2018-03-31T03:58:46.653Z,995.78
2018-03-31T03:59:46.705Z,995.75
2018-03-31T04:00:46.761Z,995.77
2018-03-31T04:01:46.832Z,995.74
2018-03-31T04:02:46.926Z,995.74
2018-03-31T04:03:46.945Z,995.78
2018-03-31T04:04:47.000Z,995.75
2018-03-31T04:05:47.078Z,995.78
2018-03-31T04:06:47.145Z,995.78
2018-03-31T04:07:47.202Z,995.72
2018-03-31T04:08:47.249Z,995.76
2018-03-31T04:09:47.330Z,995.76
2018-03-31T04:10:47.365Z,995.75
2018-03-31T04:11:47.425Z,995.74
2018-03-31T04:12:47.529Z,995.74
2018-03-31T04:13:47.541Z,995.73
2018-03-31T04:14:47.605Z,995.67
2018-03-31T04:15:47.661Z,995.67
2018-03-31T04:16:47.730Z,995.62
2018-03-31T04:17:47.793Z,995.60
2018-03-31T04:18:47.841Z,995.63
2018-03-31T04:19:47.906Z,995.63
2018-03-31T04:20:47.961Z,995.58
2018-03-31T04:21:48.029Z,995.60
2018-03-31T04:22:48.089Z,995.63
2018-03-31T04:23:48.145Z,995.62
2018-03-31T04:24:48.201Z,995.63
2018-03-31T04:25:48.261Z,995.64
2018-03-31T04:26:48.329Z,995.65
2018-03-31T04:27:48.393Z,995.59
2018-03-31T04:28:48.446Z,995.64
2018-03-31T04:29:48.503Z,995.63
2018-03-31T04:30:48.564Z,995.60
2018-03-31T04:31:48.626Z,995.61
2018-03-31T04:32:48.686Z,995.66
2018-03-31T04:33:48.742Z,995.63
2018-03-31T04:34:48.802Z,995.66
2018-03-31T04:35:48.866Z,995.61
2018-03-31T04:36:48.926Z,995.65
2018-03-31T04:37:49.006Z,995.64
2018-03-31T04:38:49.042Z,995.67
2018-03-31T04:39:49.117Z,995.65
2018-03-31T04:40:49.163Z,995.65
2018-03-31T04:41:49.222Z,995.68
2018-03-31T04:42:49.594Z,995.66
2018-03-31T04:43:49.343Z,995.67
2018-03-31T04:44:49.403Z,995.66
2018-03-31T04:45:49.462Z,995.63
2018-03-31T04:46:49.522Z,995.62
2018-03-31T04:47:49.579Z,995.63
2018-03-31T04:48:49.663Z,995.62
2018-03-31T04:49:49.699Z,995.61
2018-03-31T04:50:49.763Z,995.62
2018-03-31T04:51:49.819Z,995.63
2018-03-31T04:52:49.878Z,995.60
2018-03-31T04:53:49.946Z,995.58
2018-03-31T04:54:50.007Z,995.63
2018-03-31T04:55:50.062Z,995.61
2018-03-31T04:56:50.123Z,995.56
2018-03-31T04:57:50.179Z,995.59
2018-03-31T04:58:50.343Z,995.56
2018-03-31T04:59:50.307Z,995.52
2018-03-31T05:00:50.359Z,995.57
2018-03-31T05:01:50.420Z,995.60
2018-03-31T05:02:50.483Z,995.60
2018-03-31T05:03:50.543Z,995.58
2018-03-31T05:04:50.607Z,995.55
2018-03-31T05:05:50.656Z,995.59
2018-03-31T05:06:50.716Z,995.58
2018-03-31T05:07:50.775Z,995.59
2018-03-31T05:08:50.847Z,995.59
2018-03-31T05:09:50.907Z,995.60
2018-03-31T05:10:50.955Z,995.64
2018-03-31T05:11:51.015Z,995.66
2018-03-31T05:12:51.076Z,995.66
2018-03-31T05:13:51.155Z,995.74
2018-03-31T05:14:51.195Z,995.76
2018-03-31T05:15:51.251Z,995.79
2018-03-31T05:16:51.315Z,995.81
2018-03-31T05:17:51.436Z,995.85
2018-03-31T05:18:51.439Z,995.80
2018-03-31T05:19:51.504Z,995.79
2018-03-31T05:20:51.556Z,995.79
2018-03-31T05:21:51.612Z,995.75
2018-03-31T05:22:51.683Z,995.81
2018-03-31T05:23:51.748Z,995.74
2018-03-31T05:24:51.808Z,995.73
2018-03-31T05:25:51.857Z,995.75
2018-03-31T05:26:51.915Z,995.75
2018-03-31T05:27:51.971Z,995.76
2018-03-31T05:28:52.036Z,995.75
2018-03-31T05:29:52.095Z,995.77
2018-03-31T05:30:52.152Z,995.81
2018-03-31T05:31:52.212Z,995.83
2018-03-31T05:32:52.268Z,995.85
2018-03-31T05:33:52.608Z,995.88
2018-03-31T05:34:52.392Z,995.87
2018-03-31T05:35:52.448Z,995.87
2018-03-31T05:36:52.512Z,995.86
2018-03-31T05:37:52.571Z,995.87
2018-03-31T05:38:52.656Z,995.85
2018-03-31T05:39:52.702Z,995.79
2018-03-31T05:40:52.748Z,995.79
2018-03-31T05:41:52.812Z,995.74
2018-03-31T05:42:52.873Z,995.74
2018-03-31T05:43:52.936Z,995.69
2018-03-31T05:44:53.000Z,995.71
2018-03-31T05:45:53.057Z,995.72
2018-03-31T05:46:53.112Z,995.72
2018-03-31T05:47:53.181Z,995.68
2018-03-31T05:48:53.253Z,995.71
2018-03-31T05:49:53.285Z,995.73
2018-03-31T05:50:53.352Z,995.77
2018-03-31T05:51:53.409Z,995.81
2018-03-31T05:52:53.468Z,995.84
2018-03-31T05:53:53.533Z,995.89
2018-03-31T05:54:53.593Z,995.91
2018-03-31T05:55:53.649Z,995.90
2018-03-31T05:56:53.709Z,995.92
2018-03-31T05:57:53.801Z,995.94
2018-03-31T05:58:53.917Z,995.95
2018-03-31T05:59:53.901Z,995.99
2018-03-31T06:00:53.950Z,995.98
2018-03-31T06:01:54.010Z,996.00
2018-03-31T06:02:54.072Z,995.95
2018-03-31T06:03:54.154Z,995.97
2018-03-31T06:04:54.190Z,995.94
2018-03-31T06:05:54.253Z,995.98
2018-03-31T06:06:54.317Z,995.95
2018-03-31T06:07:54.369Z,995.98
2018-03-31T06:08:54.455Z,996.02
2018-03-31T06:09:54.489Z,995.95
2018-03-31T06:10:54.549Z,995.94
2018-03-31T06:11:54.610Z,995.94
2018-03-31T06:12:54.674Z,995.97
2018-03-31T06:13:54.746Z,995.94
2018-03-31T06:14:54.871Z,995.98
2018-03-31T06:15:54.851Z,995.97
2018-03-31T06:16:54.950Z,996.00
2018-03-31T06:17:55.029Z,996.03
2018-03-31T06:18:55.038Z,996.02
2018-03-31T06:19:55.102Z,996.03
2018-03-31T06:20:55.166Z,996.02
2018-03-31T06:21:55.209Z,996.03
2018-03-31T06:22:55.270Z,996.07
2018-03-31T06:23:55.482Z,996.04
2018-03-31T06:24:55.382Z,996.08
2018-03-31T06:25:55.445Z,996.06
2018-03-31T06:26:55.530Z,996.09
2018-03-31T06:27:55.567Z,996.07
2018-03-31T06:28:55.634Z,996.04
2018-03-31T06:29:55.690Z,996.06
2018-03-31T06:30:55.766Z,996.02
2018-03-31T06:31:55.815Z,996.07
2018-03-31T06:32:55.871Z,996.04
2018-03-31T06:33:55.938Z,996.10
2018-03-31T06:34:56.007Z,996.08
2018-03-31T06:35:56.051Z,996.10
2018-03-31T06:36:56.110Z,996.16
2018-03-31T06:37:56.179Z,996.13
2018-03-31T06:38:56.251Z,996.18
2018-03-31T06:39:56.299Z,996.22
2018-03-31T06:40:56.355Z,996.24
2018-03-31T06:41:56.415Z,996.25
2018-03-31T06:42:56.479Z,996.26
2018-03-31T06:43:56.539Z,996.26
2018-03-31T06:44:56.603Z,996.27
2018-03-31T06:45:56.654Z,996.28
2018-03-31T06:46:56.715Z,996.30
2018-03-31T06:47:56.785Z,996.31
2018-03-31T06:48:56.908Z,996.29
2018-03-31T06:49:56.911Z,996.30
2018-03-31T06:50:56.959Z,996.36
2018-03-31T06:51:57.045Z,996.34
2018-03-31T06:52:57.080Z,996.39
2018-03-31T06:53:57.276Z,996.42
2018-03-31T06:54:57.206Z,996.49
2018-03-31T06:55:57.260Z,996.46
2018-03-31T06:56:57.323Z,996.45
2018-03-31T06:57:57.388Z,996.48
2018-03-31T06:58:57.502Z,996.46
2018-03-31T06:59:57.522Z,996.48
2018-03-31T07:00:57.571Z,996.47
2018-03-31T07:01:57.624Z,996.53
2018-03-31T07:02:57.700Z,996.53
2018-03-31T07:03:57.756Z,996.50
2018-03-31T07:04:57.832Z,996.51
2018-03-31T07:05:57.868Z,996.57
2018-03-31T07:06:57.941Z,996.55
2018-03-31T07:07:58.072Z,996.60
2018-03-31T07:08:58.064Z,996.59
2018-03-31T07:09:58.125Z,996.59
2018-03-31T07:10:58.185Z,996.61
2018-03-31T07:11:58.236Z,996.63
2018-03-31T07:12:58.296Z,996.59
2018-03-31T07:13:58.372Z,996.65
2018-03-31T07:14:58.432Z,996.67
2018-03-31T07:15:58.484Z,996.70
2018-03-31T07:16:58.540Z,996.69
2018-03-31T07:17:58.608Z,996.65
2018-03-31T07:18:58.672Z,996.67
2018-03-31T07:20:00.285Z,996.66
2018-03-31T07:20:58.808Z,996.68
2018-03-31T07:21:58.853Z,996.69
2018-03-31T07:22:58.949Z,996.67
2018-03-31T07:23:59.169Z,996.67
2018-03-31T07:24:59.041Z,996.67
2018-03-31T07:25:59.093Z,996.63
2018-03-31T07:26:59.157Z,996.68
2018-03-31T07:27:59.221Z,996.66
2018-03-31T07:28:59.452Z,996.71
2018-03-31T07:30:01.161Z,996.70
2018-03-31T07:30:59.397Z,996.73
2018-03-31T07:32:00.137Z,996.76
2018-03-31T07:32:59.581Z,996.79
2018-03-31T07:34:00.189Z,997.08
2018-03-31T07:34:59.731Z,997.20
2018-03-31T07:35:59.962Z,997.25
2018-03-31T07:36:59.917Z,997.36
2018-03-31T07:37:59.969Z,997.28
2018-03-31T07:38:59.997Z,997.26
2018-03-31T07:40:00.601Z,997.42
2018-03-31T07:41:00.034Z,997.26
2018-03-31T07:42:00.094Z,997.12
2018-03-31T07:43:00.233Z,997.24
2018-03-31T07:44:00.309Z,997.42
2018-03-31T07:45:00.445Z,997.79
2018-03-31T07:46:00.432Z,997.75
2018-03-31T07:47:00.397Z,997.69
2018-03-31T07:48:00.494Z,997.71
2018-03-31T07:49:00.866Z,997.62
2018-03-31T07:50:00.738Z,997.73
2018-03-31T07:51:00.677Z,997.78
2018-03-31T07:52:00.760Z,997.77
2018-03-31T07:53:00.837Z,997.96
2018-03-31T07:54:00.850Z,998.10
2018-03-31T07:55:01.053Z,998.13
2018-03-31T07:56:01.054Z,998.26
2018-03-31T07:57:01.094Z,998.35
2018-03-31T07:58:01.129Z,998.65
2018-03-31T07:59:01.465Z,998.99
2018-03-31T08:00:01.270Z,999.02
2018-03-31T08:01:01.369Z,999.37
2018-03-31T08:02:01.402Z,999.18
2018-03-31T08:03:01.450Z,999.47
2018-03-31T08:04:01.522Z,999.37
2018-03-31T08:05:01.586Z,999.22
2018-03-31T08:06:01.718Z,999.25
2018-03-31T08:07:01.886Z,999.10
2018-03-31T08:08:01.755Z,999.10
2018-03-31T08:09:01.842Z,999.07
2018-03-31T08:10:01.954Z,998.89
2018-03-31T08:11:02.418Z,998.81
2018-03-31T08:12:02.235Z,998.95
2018-03-31T08:13:02.095Z,998.83
2018-03-31T08:14:02.186Z,998.76
2018-03-31T08:15:02.675Z,998.71
2018-03-31T08:16:02.306Z,998.56
2018-03-31T08:17:02.990Z,998.39
2018-03-31T08:18:02.478Z,998.21
2018-03-31T08:19:02.623Z,998.11
2018-03-31T08:20:02.591Z,998.08
2018-03-31T08:21:02.850Z,998.03
2018-03-31T08:22:02.799Z,998.04
2018-03-31T08:23:02.859Z,998.00
2018-03-31T08:24:02.982Z,998.03
2018-03-31T08:25:03.034Z,997.94
2018-03-31T08:26:03.095Z,997.96
2018-03-31T08:27:03.095Z,997.99
2018-03-31T08:28:03.140Z,998.04
2018-03-31T08:29:03.283Z,997.98
2018-03-31T08:30:03.497Z,997.98
2018-03-31T08:31:03.364Z,997.90
2018-03-31T08:32:03.435Z,997.85
2018-03-31T08:33:03.479Z,997.90
2018-03-31T08:34:03.572Z,997.89
2018-03-31T08:35:03.604Z,997.83
2018-03-31T08:36:03.723Z,997.69
2018-03-31T08:37:03.771Z,997.72
2018-03-31T08:38:03.799Z,997.79
2018-03-31T08:39:03.887Z,997.85
2018-03-31T08:40:03.964Z,997.86
2018-03-31T08:41:04.072Z,997.81
2018-03-31T08:42:04.092Z,997.82
2018-03-31T08:43:04.163Z,997.75
2018-03-31T08:44:04.220Z,997.81
2018-03-31T08:45:04.344Z,997.74
2018-03-31T08:46:04.516Z,997.85
2018-03-31T08:47:04.524Z,997.82
2018-03-31T08:48:04.516Z,997.84
2018-03-31T08:49:04.568Z,997.80
2018-03-31T08:50:04.648Z,997.79
2018-03-31T08:51:04.928Z,997.65
2018-03-31T08:52:04.964Z,997.65
2018-03-31T08:53:04.860Z,997.67
2018-03-31T08:54:05.056Z,997.56
2018-03-31T08:55:05.084Z,997.39
2018-03-31T08:56:05.128Z,997.36
2018-03-31T08:57:05.136Z,997.28
2018-03-31T08:58:05.456Z,997.21
2018-03-31T08:59:05.280Z,997.26
2018-03-31T09:00:05.416Z,997.26
2018-03-31T09:01:05.420Z,997.29
2018-03-31T09:02:05.465Z,997.27
2018-03-31T09:03:05.532Z,997.20
2018-03-31T09:04:05.598Z,997.24
2018-03-31T09:05:05.664Z,997.21
2018-03-31T09:06:05.757Z,997.23
2018-03-31T09:07:05.816Z,997.14
2018-03-31T09:08:05.876Z,997.17
2018-03-31T09:09:05.949Z,997.15
2018-03-31T09:10:06.112Z,997.12
2018-03-31T09:11:06.133Z,997.14
2018-03-31T09:12:06.152Z,997.15
2018-03-31T09:13:06.240Z,997.07
2018-03-31T09:14:06.305Z,997.10
2018-03-31T09:15:06.428Z,997.07
2018-03-31T09:16:06.525Z,997.04
2018-03-31T09:17:06.513Z,997.06
2018-03-31T09:18:06.577Z,997.04
2018-03-31T09:19:06.653Z,997.05
2018-03-31T09:20:06.705Z,997.04
2018-03-31T09:21:06.798Z,997.03
2018-03-31T09:22:06.871Z,997.04
2018-03-31T09:23:06.964Z,997.03
2018-03-31T09:24:06.977Z,997.01
2018-03-31T09:25:07.057Z,996.99
2018-03-31T09:26:07.233Z,996.97
2018-03-31T09:27:07.210Z,997.00
2018-03-31T09:28:07.281Z,997.01
2018-03-31T09:29:07.378Z,997.01
2018-03-31T09:30:07.421Z,997.00
2018-03-31T09:31:07.489Z,996.96
2018-03-31T09:32:07.541Z,996.99
2018-03-31T09:33:07.602Z,996.99
2018-03-31T09:34:07.686Z,996.98
2018-03-31T09:35:07.749Z,996.97
2018-03-31T09:36:07.818Z,997.03
2018-03-31T09:37:07.914Z,996.99
2018-03-31T09:38:07.950Z,997.02
2018-03-31T09:39:08.017Z,996.98
2018-03-31T09:40:08.098Z,997.03
2018-03-31T09:41:08.178Z,997.04
2018-03-31T09:42:08.225Z,997.02
2018-03-31T09:43:08.314Z,996.97
2018-03-31T09:44:08.382Z,996.97
2018-03-31T09:45:08.446Z,996.90
2018-03-31T09:46:08.526Z,996.91
2018-03-31T09:47:08.583Z,996.88
2018-03-31T09:48:08.650Z,996.89
2018-03-31T09:49:08.698Z,996.92
2018-03-31T09:50:08.779Z,996.92
2018-03-31T09:51:08.872Z,996.90
2018-03-31T09:52:08.930Z,996.88
2018-03-31T09:53:08.991Z,996.90
2018-03-31T09:54:09.050Z,996.90
2018-03-31T09:55:09.126Z,996.91
2018-03-31T09:56:09.187Z,996.92
2018-03-31T09:57:09.300Z,996.90
2018-03-31T09:58:09.335Z,996.91
2018-03-31T09:59:09.387Z,996.88
2018-03-31T10:00:09.479Z,996.91
2018-03-31T10:01:09.526Z,996.88
2018-03-31T10:02:09.603Z,996.91
2018-03-31T10:03:09.682Z,996.97
2018-03-31T10:04:09.735Z,996.92
2018-03-31T10:05:09.839Z,996.95
2018-03-31T10:06:09.871Z,996.96
2018-03-31T10:07:09.955Z,996.93
2018-03-31T10:08:10.019Z,996.96
2018-03-31T10:09:10.079Z,996.92
2018-03-31T10:10:10.147Z,996.92
2018-03-31T10:11:10.215Z,996.95
2018-03-31T10:12:10.291Z,996.97
2018-03-31T10:13:10.503Z,996.99
2018-03-31T10:14:10.427Z,997.00
2018-03-31T10:15:10.487Z,997.02
2018-03-31T10:16:10.556Z,996.96
2018-03-31T10:17:10.627Z,997.01
2018-03-31T10:18:10.708Z,996.99
2018-03-31T10:19:10.768Z,996.98
2018-03-31T10:20:10.832Z,996.96
2018-03-31T10:21:10.899Z,996.95
2018-03-31T10:22:10.968Z,996.96
2018-03-31T10:23:11.044Z,996.97
2018-03-31T10:24:11.108Z,996.95
2018-03-31T10:25:11.172Z,996.95
2018-03-31T10:26:11.240Z,996.89
2018-03-31T10:27:11.308Z,996.90
2018-03-31T10:28:11.388Z,996.89
2018-03-31T10:29:11.483Z,996.85
2018-03-31T10:30:11.513Z,996.83
2018-03-31T10:31:11.580Z,996.83
2018-03-31T10:32:11.650Z,996.86
2018-03-31T10:33:11.728Z,996.82
2018-03-31T10:34:11.794Z,996.85
2018-03-31T10:35:11.893Z,996.85
2018-03-31T10:36:11.928Z,996.83
2018-03-31T10:37:11.988Z,996.85
2018-03-31T10:38:12.068Z,996.86
2018-03-31T10:39:12.132Z,996.86
2018-03-31T10:40:12.192Z,996.86
2018-03-31T10:41:12.269Z,996.86
2018-03-31T10:42:12.332Z,996.86
2018-03-31T10:43:12.404Z,996.85
2018-03-31T10:44:12.473Z,996.85
2018-03-31T10:45:12.537Z,996.83
2018-03-31T10:46:12.611Z,996.86
2018-03-31T10:47:12.673Z,996.81
2018-03-31T10:48:12.745Z,996.80
2018-03-31T10:49:12.812Z,996.84
2018-03-31T10:50:12.877Z,996.81
2018-03-31T10:51:12.946Z,996.78
2018-03-31T10:52:13.008Z,996.79
2018-03-31T10:53:13.093Z,996.80
2018-03-31T10:54:13.149Z,996.80
2018-03-31T10:55:13.220Z,996.78
2018-03-31T10:56:13.281Z,996.80
2018-03-31T10:57:13.353Z,996.82
2018-03-31T10:58:13.425Z,996.78
2018-03-31T10:59:13.493Z,996.82
2018-03-31T11:00:13.557Z,996.81
2018-03-31T11:01:13.621Z,996.81
2018-03-31T11:02:13.689Z,996.82
2018-03-31T11:03:13.765Z,996.81
2018-03-31T11:04:13.833Z,996.83
2018-03-31T11:05:13.894Z,996.84
2018-03-31T11:06:13.961Z,996.86
2018-03-31T11:07:14.030Z,996.79
2018-03-31T11:08:14.254Z,996.78
2018-03-31T11:09:14.165Z,996.84
2018-03-31T11:10:14.242Z,996.81
2018-03-31T11:11:14.301Z,996.84
2018-03-31T11:12:14.374Z,996.83
2018-03-31T11:13:14.454Z,996.83
2018-03-31T11:14:14.522Z,996.79
2018-03-31T11:15:14.574Z,996.78
2018-03-31T11:16:14.642Z,996.76
2018-03-31T11:17:14.709Z,996.78
2018-03-31T11:18:14.790Z,996.73
2018-03-31T11:19:14.858Z,996.74
2018-03-31T11:20:14.914Z,996.75
2018-03-31T11:21:14.994Z,996.73
2018-03-31T11:22:15.054Z,996.76
2018-03-31T11:23:15.226Z,996.75
2018-03-31T11:24:15.186Z,996.72
2018-03-31T11:25:15.254Z,996.73
2018-03-31T11:26:15.327Z,996.70
2018-03-31T11:27:15.395Z,996.72
2018-03-31T11:28:15.462Z,996.77
2018-03-31T11:29:15.536Z,996.73
2018-03-31T11:30:15.598Z,996.77
2018-03-31T11:31:15.662Z,996.81
2018-03-31T11:32:15.761Z,996.77
2018-03-31T11:33:15.802Z,996.78
2018-03-31T11:34:15.870Z,996.80
2018-03-31T11:35:15.930Z,996.80
2018-03-31T11:36:15.999Z,996.84
2018-03-31T11:37:16.071Z,996.83
2018-03-31T11:38:16.155Z,996.77
2018-03-31T11:39:16.211Z,996.83
2018-03-31T11:40:16.275Z,996.86
2018-03-31T11:41:16.338Z,996.85
2018-03-31T11:42:16.411Z,996.78
2018-03-31T11:43:16.501Z,996.81
2018-03-31T11:44:16.555Z,996.84
2018-03-31T11:45:16.611Z,996.85
2018-03-31T11:46:16.679Z,996.85
2018-03-31T11:47:16.751Z,996.83
2018-03-31T11:48:16.811Z,996.84
2018-03-31T11:49:16.895Z,996.88
2018-03-31T11:50:16.959Z,996.88
2018-03-31T11:51:17.024Z,996.86
2018-03-31T11:52:17.083Z,996.85
2018-03-31T11:53:17.166Z,996.88
2018-03-31T11:54:17.235Z,996.82
2018-03-31T11:55:17.287Z,996.85
2018-03-31T11:56:17.355Z,996.83
2018-03-31T11:57:17.423Z,996.83
2018-03-31T11:58:17.496Z,996.81
2018-03-31T11:59:17.568Z,996.85
2018-03-31T12:00:17.656Z,996.87
2018-03-31T12:01:17.696Z,996.85
2018-03-31T12:02:17.776Z,996.84
2018-03-31T12:03:17.839Z,996.82
2018-03-31T12:04:17.908Z,996.87
2018-03-31T12:05:17.972Z,996.83
2018-03-31T12:06:18.040Z,996.83
2018-03-31T12:07:18.108Z,996.81
2018-03-31T12:08:18.172Z,996.82
2018-03-31T12:09:19.196Z,996.84
2018-03-31T12:10:18.307Z,996.89
2018-03-31T12:11:18.376Z,996.87
2018-03-31T12:12:18.440Z,996.90
2018-03-31T12:13:18.509Z,996.94
2018-03-31T12:14:18.584Z,996.90
2018-03-31T12:15:18.653Z,996.88
2018-03-31T12:16:18.712Z,996.92
2018-03-31T12:17:18.785Z,996.97
2018-03-31T12:18:18.852Z,996.95
2018-03-31T12:19:18.924Z,996.91
2018-03-31T12:20:18.992Z,996.82
2018-03-31T12:21:19.056Z,996.84
2018-03-31T12:22:19.120Z,996.84
2018-03-31T12:23:19.192Z,996.79
2018-03-31T12:24:19.360Z,996.78
2018-03-31T12:25:19.325Z,996.79
2018-03-31T12:26:19.397Z,996.75
2018-03-31T12:27:19.464Z,996.75
2018-03-31T12:28:19.532Z,996.76
2018-03-31T12:29:19.600Z,996.73